sensor_id;sensor_type;location;lat;lon;timestamp;temperature;humidity
78904;DHT22;68291;49.602;8.722;2023-06-10T00:00:07;19.50;82.40
78904;DHT22;68291;49.602;8.722;2023-06-10T00:03:07;19.50;81.70
78904;DHT22;68291;49.602;8.722;2023-06-10T00:06:05;19.50;80.90
78904;DHT22;68291;49.602;8.722;2023-06-10T00:09:03;19.40;81.70
78904;DHT22;68291;49.602;8.722;2023-06-10T00:12:00;19.40;82.20
78904;DHT22;68291;49.602;8.722;2023-06-10T00:15:15;19.40;82.50
78904;DHT22;68291;49.602;8.722;2023-06-10T00:18:07;19.40;83.70
78904;DHT22;68291;49.602;8.722;2023-06-10T00:20:57;19.40;82.00
78904;DHT22;68291;49.602;8.722;2023-06-10T00:23:54;19.30;82.60
78904;DHT22;68291;49.602;8.722;2023-06-10T00:26:45;19.30;82.80
78904;DHT22;68291;49.602;8.722;2023-06-10T00:29:34;19.30;83.30
78904;DHT22;68291;49.602;8.722;2023-06-10T00:32:41;19.30;83.40
78904;DHT22;68291;49.602;8.722;2023-06-10T00:35:35;19.30;84.70
78904;DHT22;68291;49.602;8.722;2023-06-10T00:38:33;19.30;83.80
78904;DHT22;68291;49.602;8.722;2023-06-10T00:41:28;19.30;84.50
78904;DHT22;68291;49.602;8.722;2023-06-10T00:44:26;19.30;84.40
78904;DHT22;68291;49.602;8.722;2023-06-10T00:47:16;19.30;84.30
78904;DHT22;68291;49.602;8.722;2023-06-10T00:50:18;19.30;84.90
78904;DHT22;68291;49.602;8.722;2023-06-10T00:53:12;19.20;86.20
78904;DHT22;68291;49.602;8.722;2023-06-10T00:56:10;19.20;85.00
78904;DHT22;68291;49.602;8.722;2023-06-10T00:59:07;19.30;85.40
78904;DHT22;68291;49.602;8.722;2023-06-10T01:01:57;19.30;85.70
78904;DHT22;68291;49.602;8.722;2023-06-10T01:04:54;19.30;85.30
78904;DHT22;68291;49.602;8.722;2023-06-10T01:08:13;19.40;86.00
78904;DHT22;68291;49.602;8.722;2023-06-10T01:11:17;19.50;85.80
78904;DHT22;68291;49.602;8.722;2023-06-10T01:14:14;19.60;86.10
78904;DHT22;68291;49.602;8.722;2023-06-10T01:17:12;19.60;85.60
78904;DHT22;68291;49.602;8.722;2023-06-10T01:20:27;19.70;85.20
78904;DHT22;68291;49.602;8.722;2023-06-10T01:23:27;19.70;84.90
78904;DHT22;68291;49.602;8.722;2023-06-10T01:26:24;19.70;85.50
78904;DHT22;68291;49.602;8.722;2023-06-10T01:29:43;19.80;85.70
78904;DHT22;68291;49.602;8.722;2023-06-10T01:32:40;19.80;86.20
78904;DHT22;68291;49.602;8.722;2023-06-10T01:35:34;19.80;86.10
78904;DHT22;68291;49.602;8.722;2023-06-10T01:38:54;19.80;85.90
78904;DHT22;68291;49.602;8.722;2023-06-10T01:41:52;19.70;87.10
78904;DHT22;68291;49.602;8.722;2023-06-10T01:44:42;19.70;86.40
78904;DHT22;68291;49.602;8.722;2023-06-10T01:47:31;19.60;86.70
78904;DHT22;68291;49.602;8.722;2023-06-10T01:50:29;19.60;87.20
78904;DHT22;68291;49.602;8.722;2023-06-10T01:53:27;19.60;87.30
78904;DHT22;68291;49.602;8.722;2023-06-10T01:56:38;19.50;87.60
78904;DHT22;68291;49.602;8.722;2023-06-10T01:59:37;19.40;88.70
78904;DHT22;68291;49.602;8.722;2023-06-10T02:02:35;19.40;87.70
78904;DHT22;68291;49.602;8.722;2023-06-10T02:05:49;19.30;88.20
78904;DHT22;68291;49.602;8.722;2023-06-10T02:08:43;19.20;88.20
78904;DHT22;68291;49.602;8.722;2023-06-10T02:11:53;19.20;89.20
78904;DHT22;68291;49.602;8.722;2023-06-10T02:14:45;19.10;90.10
78904;DHT22;68291;49.602;8.722;2023-06-10T02:17:47;19.00;89.40
78904;DHT22;68291;49.602;8.722;2023-06-10T02:20:45;18.90;90.00
78904;DHT22;68291;49.602;8.722;2023-06-10T02:23:45;18.80;90.10
78904;DHT22;68291;49.602;8.722;2023-06-10T02:26:42;18.70;90.10
78904;DHT22;68291;49.602;8.722;2023-06-10T02:29:42;18.60;90.20
78904;DHT22;68291;49.602;8.722;2023-06-10T02:32:40;18.60;90.70
78904;DHT22;68291;49.602;8.722;2023-06-10T02:35:39;18.50;90.60
78904;DHT22;68291;49.602;8.722;2023-06-10T02:38:37;18.40;90.70
78904;DHT22;68291;49.602;8.722;2023-06-10T02:41:31;18.40;91.00
78904;DHT22;68291;49.602;8.722;2023-06-10T02:44:21;18.30;91.10
78904;DHT22;68291;49.602;8.722;2023-06-10T02:47:32;18.20;91.30
78904;DHT22;68291;49.602;8.722;2023-06-10T02:50:22;18.10;92.20
78904;DHT22;68291;49.602;8.722;2023-06-10T02:53:29;18.10;91.70
78904;DHT22;68291;49.602;8.722;2023-06-10T02:56:30;18.10;92.00
78904;DHT22;68291;49.602;8.722;2023-06-10T02:59:33;18.00;92.20
78904;DHT22;68291;49.602;8.722;2023-06-10T03:02:27;17.90;92.00
78904;DHT22;68291;49.602;8.722;2023-06-10T03:05:18;17.80;92.50
78904;DHT22;68291;49.602;8.722;2023-06-10T03:08:13;17.80;92.70
78904;DHT22;68291;49.602;8.722;2023-06-10T03:11:12;17.70;92.70
78904;DHT22;68291;49.602;8.722;2023-06-10T03:14:01;17.70;93.40
78904;DHT22;68291;49.602;8.722;2023-06-10T03:17:19;17.60;93.40
78904;DHT22;68291;49.602;8.722;2023-06-10T03:20:16;17.60;93.50
78904;DHT22;68291;49.602;8.722;2023-06-10T03:23:15;17.60;94.00
78904;DHT22;68291;49.602;8.722;2023-06-10T03:26:05;17.50;93.80
78904;DHT22;68291;49.602;8.722;2023-06-10T03:29:06;17.50;94.00
78904;DHT22;68291;49.602;8.722;2023-06-10T03:31:56;17.50;94.20
78904;DHT22;68291;49.602;8.722;2023-06-10T03:35:01;17.40;94.40
78904;DHT22;68291;49.602;8.722;2023-06-10T03:38:17;17.40;95.00
78904;DHT22;68291;49.602;8.722;2023-06-10T03:41:08;17.40;96.00
78904;DHT22;68291;49.602;8.722;2023-06-10T03:44:08;17.40;95.50
78904;DHT22;68291;49.602;8.722;2023-06-10T03:47:07;17.40;95.30
78904;DHT22;68291;49.602;8.722;2023-06-10T03:50:06;17.30;95.60
78904;DHT22;68291;49.602;8.722;2023-06-10T03:53:18;17.30;95.90
78904;DHT22;68291;49.602;8.722;2023-06-10T03:56:11;17.30;96.60
78904;DHT22;68291;49.602;8.722;2023-06-10T03:59:04;17.30;96.20
78904;DHT22;68291;49.602;8.722;2023-06-10T04:01:53;17.30;96.50
78904;DHT22;68291;49.602;8.722;2023-06-10T04:04:43;17.30;96.60
78904;DHT22;68291;49.602;8.722;2023-06-10T04:08:01;17.30;97.00
78904;DHT22;68291;49.602;8.722;2023-06-10T04:11:08;17.30;97.00
78904;DHT22;68291;49.602;8.722;2023-06-10T04:14:22;17.40;97.80
78904;DHT22;68291;49.602;8.722;2023-06-10T04:17:21;17.40;97.40
78904;DHT22;68291;49.602;8.722;2023-06-10T04:20:19;17.40;97.60
78904;DHT22;68291;49.602;8.722;2023-06-10T04:23:37;17.50;97.90
78904;DHT22;68291;49.602;8.722;2023-06-10T04:26:42;17.50;98.20
78904;DHT22;68291;49.602;8.722;2023-06-10T04:29:33;17.50;99.20
78904;DHT22;68291;49.602;8.722;2023-06-10T04:32:37;17.50;98.40
78904;DHT22;68291;49.602;8.722;2023-06-10T04:35:30;17.60;98.70
78904;DHT22;68291;49.602;8.722;2023-06-10T04:38:24;17.60;98.90
78904;DHT22;68291;49.602;8.722;2023-06-10T04:41:18;17.70;99.30
78904;DHT22;68291;49.602;8.722;2023-06-10T04:44:35;17.70;99.70
78904;DHT22;68291;49.602;8.722;2023-06-10T04:47:39;17.80;99.90
78904;DHT22;68291;49.602;8.722;2023-06-10T04:50:47;17.80;99.90
78904;DHT22;68291;49.602;8.722;2023-06-10T04:53:37;17.90;99.90
78904;DHT22;68291;49.602;8.722;2023-06-10T04:56:36;17.90;99.90
78904;DHT22;68291;49.602;8.722;2023-06-10T04:59:39;18.00;99.90
78904;DHT22;68291;49.602;8.722;2023-06-10T05:02:44;18.10;99.90
78904;DHT22;68291;49.602;8.722;2023-06-10T05:05:42;18.20;99.90
78904;DHT22;68291;49.602;8.722;2023-06-10T05:08:32;18.30;99.90
78904;DHT22;68291;49.602;8.722;2023-06-10T05:11:29;18.40;99.90
78904;DHT22;68291;49.602;8.722;2023-06-10T05:14:42;18.50;99.90
78904;DHT22;68291;49.602;8.722;2023-06-10T05:17:41;18.60;99.90
78904;DHT22;68291;49.602;8.722;2023-06-10T05:20:59;18.70;99.90
78904;DHT22;68291;49.602;8.722;2023-06-10T05:23:49;18.80;99.90
78904;DHT22;68291;49.602;8.722;2023-06-10T05:26:42;19.00;99.90
78904;DHT22;68291;49.602;8.722;2023-06-10T05:29:36;19.10;99.90
78904;DHT22;68291;49.602;8.722;2023-06-10T05:32:33;19.30;99.90
78904;DHT22;68291;49.602;8.722;2023-06-10T05:35:31;19.40;99.90
78904;DHT22;68291;49.602;8.722;2023-06-10T05:38:29;19.60;99.90
78904;DHT22;68291;49.602;8.722;2023-06-10T05:41:27;19.80;99.90
78904;DHT22;68291;49.602;8.722;2023-06-10T05:44:25;19.90;99.90
78904;DHT22;68291;49.602;8.722;2023-06-10T05:47:16;20.10;99.90
78904;DHT22;68291;49.602;8.722;2023-06-10T05:50:29;20.20;99.90
78904;DHT22;68291;49.602;8.722;2023-06-10T05:53:27;20.40;99.90
78904;DHT22;68291;49.602;8.722;2023-06-10T05:56:17;20.60;99.90
78904;DHT22;68291;49.602;8.722;2023-06-10T05:59:15;20.70;99.90
78904;DHT22;68291;49.602;8.722;2023-06-10T06:02:21;20.90;99.90
78904;DHT22;68291;49.602;8.722;2023-06-10T06:05:17;21.10;99.10
78904;DHT22;68291;49.602;8.722;2023-06-10T06:08:15;21.20;99.30
78904;DHT22;68291;49.602;8.722;2023-06-10T06:11:13;21.40;98.70
78904;DHT22;68291;49.602;8.722;2023-06-10T06:14:05;21.60;98.60
78904;DHT22;68291;49.602;8.722;2023-06-10T06:17:03;21.70;98.50
78904;DHT22;68291;49.602;8.722;2023-06-10T06:20:11;21.90;98.30
78904;DHT22;68291;49.602;8.722;2023-06-10T06:23:13;22.10;97.90
78904;DHT22;68291;49.602;8.722;2023-06-10T06:26:11;22.20;97.80
78904;DHT22;68291;49.602;8.722;2023-06-10T06:29:09;22.30;97.60
78904;DHT22;68291;49.602;8.722;2023-06-10T06:32:17;22.40;97.50
78904;DHT22;68291;49.602;8.722;2023-06-10T06:35:34;22.50;97.30
78904;DHT22;68291;49.602;8.722;2023-06-10T06:38:25;22.70;97.10
78904;DHT22;68291;49.602;8.722;2023-06-10T06:41:23;22.80;96.80
78904;DHT22;68291;49.602;8.722;2023-06-10T06:44:25;22.90;96.60
78904;DHT22;68291;49.602;8.722;2023-06-10T06:47:22;23.00;96.50
78904;DHT22;68291;49.602;8.722;2023-06-10T06:50:46;23.10;96.30
78904;DHT22;68291;49.602;8.722;2023-06-10T06:53:49;23.30;95.50
78904;DHT22;68291;49.602;8.722;2023-06-10T06:56:48;23.40;95.80
78904;DHT22;68291;49.602;8.722;2023-06-10T06:59:51;23.50;95.50
78904;DHT22;68291;49.602;8.722;2023-06-10T07:02:49;23.60;95.20
78904;DHT22;68291;49.602;8.722;2023-06-10T07:06:06;23.70;95.00
78904;DHT22;68291;49.602;8.722;2023-06-10T07:09:05;23.80;94.50
78904;DHT22;68291;49.602;8.722;2023-06-10T07:12:04;23.90;94.50
78904;DHT22;68291;49.602;8.722;2023-06-10T07:14:55;24.00;94.30
78904;DHT22;68291;49.602;8.722;2023-06-10T07:17:44;24.10;94.10
78904;DHT22;68291;49.602;8.722;2023-06-10T07:20:42;24.20;94.00
78904;DHT22;68291;49.602;8.722;2023-06-10T07:23:47;24.40;94.00
78904;DHT22;68291;49.602;8.722;2023-06-10T07:26:42;24.50;93.50
78904;DHT22;68291;49.602;8.722;2023-06-10T07:29:36;24.60;93.40
78904;DHT22;68291;49.602;8.722;2023-06-10T07:32:31;24.70;93.40
78904;DHT22;68291;49.602;8.722;2023-06-10T07:35:23;24.80;93.10
78904;DHT22;68291;49.602;8.722;2023-06-10T07:38:21;24.90;92.80
78904;DHT22;68291;49.602;8.722;2023-06-10T07:41:17;25.10;92.90
78904;DHT22;68291;49.602;8.722;2023-06-10T07:44:08;25.20;92.40
78904;DHT22;68291;49.602;8.722;2023-06-10T07:46:58;25.30;92.20
78904;DHT22;68291;49.602;8.722;2023-06-10T07:49:49;25.40;91.90
78904;DHT22;68291;49.602;8.722;2023-06-10T07:52:48;25.50;92.00
78904;DHT22;68291;49.602;8.722;2023-06-10T07:55:50;25.60;92.10
78904;DHT22;68291;49.602;8.722;2023-06-10T07:58:40;25.80;91.60
78904;DHT22;68291;49.602;8.722;2023-06-10T08:01:31;25.90;91.10
78904;DHT22;68291;49.602;8.722;2023-06-10T08:04:24;26.00;91.10
78904;DHT22;68291;49.602;8.722;2023-06-10T08:07:14;26.10;91.10
78904;DHT22;68291;49.602;8.722;2023-06-10T08:10:07;26.20;91.00
78904;DHT22;68291;49.602;8.722;2023-06-10T08:13:04;26.30;91.40
78904;DHT22;68291;49.602;8.722;2023-06-10T08:15:55;26.50;90.70
78904;DHT22;68291;49.602;8.722;2023-06-10T08:18:49;26.60;90.40
78904;DHT22;68291;49.602;8.722;2023-06-10T08:21:44;26.70;90.60
78904;DHT22;68291;49.602;8.722;2023-06-10T08:24:42;26.90;90.20
78904;DHT22;68291;49.602;8.722;2023-06-10T08:27:36;27.00;90.10
78904;DHT22;68291;49.602;8.722;2023-06-10T08:30:26;27.20;90.10
78904;DHT22;68291;49.602;8.722;2023-06-10T08:33:22;27.20;89.80
78904;DHT22;68291;49.602;8.722;2023-06-10T08:36:16;27.40;86.90
78904;DHT22;68291;49.602;8.722;2023-06-10T08:39:05;27.50;87.50
78904;DHT22;68291;49.602;8.722;2023-06-10T08:42:03;27.60;87.80
78904;DHT22;68291;49.602;8.722;2023-06-10T08:45:07;27.80;85.20
78904;DHT22;68291;49.602;8.722;2023-06-10T08:48:04;27.90;86.10
78904;DHT22;68291;49.602;8.722;2023-06-10T08:51:18;28.00;85.80
78904;DHT22;68291;49.602;8.722;2023-06-10T08:54:14;28.10;85.40
78904;DHT22;68291;49.602;8.722;2023-06-10T08:57:09;28.20;84.90
78904;DHT22;68291;49.602;8.722;2023-06-10T09:00:00;28.30;84.70
78904;DHT22;68291;49.602;8.722;2023-06-10T09:02:53;28.30;84.20
78904;DHT22;68291;49.602;8.722;2023-06-10T09:05:51;28.40;84.20
78904;DHT22;68291;49.602;8.722;2023-06-10T09:08:52;28.50;83.80
78904;DHT22;68291;49.602;8.722;2023-06-10T09:11:42;28.60;84.00
78904;DHT22;68291;49.602;8.722;2023-06-10T09:14:37;28.70;82.60
78904;DHT22;68291;49.602;8.722;2023-06-10T09:17:27;28.80;82.80
78904;DHT22;68291;49.602;8.722;2023-06-10T09:20:28;28.90;81.20
78904;DHT22;68291;49.602;8.722;2023-06-10T09:23:18;29.00;80.30
78904;DHT22;68291;49.602;8.722;2023-06-10T09:26:13;29.10;80.70
78904;DHT22;68291;49.602;8.722;2023-06-10T09:29:05;29.10;78.20
78904;DHT22;68291;49.602;8.722;2023-06-10T09:32:19;29.20;78.60
78904;DHT22;68291;49.602;8.722;2023-06-10T09:35:10;29.30;78.30
78904;DHT22;68291;49.602;8.722;2023-06-10T09:38:07;29.30;77.50
78904;DHT22;68291;49.602;8.722;2023-06-10T09:41:04;29.40;77.80
78904;DHT22;68291;49.602;8.722;2023-06-10T09:44:24;29.50;74.60
78904;DHT22;68291;49.602;8.722;2023-06-10T09:47:21;29.50;75.00
78904;DHT22;68291;49.602;8.722;2023-06-10T09:50:10;29.60;75.30
78904;DHT22;68291;49.602;8.722;2023-06-10T09:53:08;29.60;74.80
78904;DHT22;68291;49.602;8.722;2023-06-10T09:55:58;29.70;74.40
78904;DHT22;68291;49.602;8.722;2023-06-10T09:58:53;29.70;73.40
78904;DHT22;68291;49.602;8.722;2023-06-10T10:02:19;29.80;72.00
78904;DHT22;68291;49.602;8.722;2023-06-10T10:05:14;29.90;72.10
78904;DHT22;68291;49.602;8.722;2023-06-10T10:08:08;29.90;72.80
78904;DHT22;68291;49.602;8.722;2023-06-10T10:11:04;30.00;71.90
78904;DHT22;68291;49.602;8.722;2023-06-10T10:13:54;30.10;71.60
78904;DHT22;68291;49.602;8.722;2023-06-10T10:16:50;30.20;70.80
78904;DHT22;68291;49.602;8.722;2023-06-10T10:19:50;30.20;70.80
78904;DHT22;68291;49.602;8.722;2023-06-10T10:22:44;30.30;71.10
78904;DHT22;68291;49.602;8.722;2023-06-10T10:25:41;30.30;69.80
78904;DHT22;68291;49.602;8.722;2023-06-10T10:28:56;30.40;69.60
78904;DHT22;68291;49.602;8.722;2023-06-10T10:31:52;30.60;69.60
78904;DHT22;68291;49.602;8.722;2023-06-10T10:35:17;30.70;69.50
78904;DHT22;68291;49.602;8.722;2023-06-10T10:38:11;30.80;68.70
78904;DHT22;68291;49.602;8.722;2023-06-10T10:41:09;30.90;69.50
78904;DHT22;68291;49.602;8.722;2023-06-10T10:44:03;31.00;68.70
78904;DHT22;68291;49.602;8.722;2023-06-10T10:47:04;31.10;68.70
78904;DHT22;68291;49.602;8.722;2023-06-10T10:50:00;31.20;68.20
78904;DHT22;68291;49.602;8.722;2023-06-10T10:53:04;31.40;68.00
78904;DHT22;68291;49.602;8.722;2023-06-10T10:56:06;31.40;68.00
78904;DHT22;68291;49.602;8.722;2023-06-10T10:59:04;31.50;66.50
78904;DHT22;68291;49.602;8.722;2023-06-10T11:01:58;31.60;64.00
78904;DHT22;68291;49.602;8.722;2023-06-10T11:04:57;31.60;64.30
78904;DHT22;68291;49.602;8.722;2023-06-10T11:07:54;31.60;64.60
78904;DHT22;68291;49.602;8.722;2023-06-10T11:10:57;31.70;63.90
78904;DHT22;68291;49.602;8.722;2023-06-10T11:14:07;31.70;63.30
78904;DHT22;68291;49.602;8.722;2023-06-10T11:17:18;31.80;62.80
78904;DHT22;68291;49.602;8.722;2023-06-10T11:20:09;31.90;64.30
78904;DHT22;68291;49.602;8.722;2023-06-10T11:23:03;32.00;65.20
78904;DHT22;68291;49.602;8.722;2023-06-10T11:26:19;32.20;62.40
78904;DHT22;68291;49.602;8.722;2023-06-10T11:29:26;32.30;60.20
78904;DHT22;68291;49.602;8.722;2023-06-10T11:32:26;32.30;62.80
78904;DHT22;68291;49.602;8.722;2023-06-10T11:35:20;32.40;63.30
78904;DHT22;68291;49.602;8.722;2023-06-10T11:38:19;32.50;61.90
78904;DHT22;68291;49.602;8.722;2023-06-10T11:41:18;32.60;61.40
78904;DHT22;68291;49.602;8.722;2023-06-10T11:44:12;32.60;60.40
78904;DHT22;68291;49.602;8.722;2023-06-10T11:47:06;32.60;61.60
78904;DHT22;68291;49.602;8.722;2023-06-10T11:49:59;32.60;60.90
78904;DHT22;68291;49.602;8.722;2023-06-10T11:52:50;32.60;60.60
78904;DHT22;68291;49.602;8.722;2023-06-10T11:55:50;32.50;59.40
78904;DHT22;68291;49.602;8.722;2023-06-10T11:58:54;32.50;59.40
78904;DHT22;68291;49.602;8.722;2023-06-10T12:01:46;32.50;60.40
78904;DHT22;68291;49.602;8.722;2023-06-10T12:04:37;32.50;60.30
78904;DHT22;68291;49.602;8.722;2023-06-10T12:07:31;32.60;61.00
78904;DHT22;68291;49.602;8.722;2023-06-10T12:10:25;32.70;60.30
78904;DHT22;68291;49.602;8.722;2023-06-10T12:13:27;32.90;59.60
78904;DHT22;68291;49.602;8.722;2023-06-10T12:16:38;33.00;58.90
78904;DHT22;68291;49.602;8.722;2023-06-10T12:19:39;33.00;58.80
78904;DHT22;68291;49.602;8.722;2023-06-10T12:22:36;33.10;58.40
78904;DHT22;68291;49.602;8.722;2023-06-10T12:25:28;33.10;58.00
78904;DHT22;68291;49.602;8.722;2023-06-10T12:28:26;33.10;57.10
78904;DHT22;68291;49.602;8.722;2023-06-10T12:31:15;33.20;57.50
78904;DHT22;68291;49.602;8.722;2023-06-10T12:34:15;33.30;58.20
78904;DHT22;68291;49.602;8.722;2023-06-10T12:37:15;33.50;57.10
78904;DHT22;68291;49.602;8.722;2023-06-10T12:40:06;33.70;58.40
78904;DHT22;68291;49.602;8.722;2023-06-10T12:43:04;33.90;57.70
78904;DHT22;68291;49.602;8.722;2023-06-10T12:45:53;34.10;56.50
78904;DHT22;68291;49.602;8.722;2023-06-10T12:48:52;34.30;55.60
78904;DHT22;68291;49.602;8.722;2023-06-10T12:51:56;34.50;54.90
78904;DHT22;68291;49.602;8.722;2023-06-10T12:54:48;34.80;55.20
78904;DHT22;68291;49.602;8.722;2023-06-10T12:57:51;35.10;56.10
78904;DHT22;68291;49.602;8.722;2023-06-10T13:00:44;35.50;54.90
78904;DHT22;68291;49.602;8.722;2023-06-10T13:03:35;35.90;55.60
78904;DHT22;68291;49.602;8.722;2023-06-10T13:06:37;36.30;55.50
78904;DHT22;68291;49.602;8.722;2023-06-10T13:09:33;36.80;54.80
78904;DHT22;68291;49.602;8.722;2023-06-10T13:12:27;37.30;52.90
78904;DHT22;68291;49.602;8.722;2023-06-10T13:15:38;37.80;53.30
78904;DHT22;68291;49.602;8.722;2023-06-10T13:18:37;38.30;52.40
78904;DHT22;68291;49.602;8.722;2023-06-10T13:21:31;38.70;51.90
78904;DHT22;68291;49.602;8.722;2023-06-10T13:24:20;38.90;49.40
78904;DHT22;68291;49.602;8.722;2023-06-10T13:27:18;39.00;48.80
78904;DHT22;68291;49.602;8.722;2023-06-10T13:30:22;38.90;48.60
78904;DHT22;68291;49.602;8.722;2023-06-10T13:33:21;38.90;50.10
78904;DHT22;68291;49.602;8.722;2023-06-10T13:36:16;39.00;49.30
78904;DHT22;68291;49.602;8.722;2023-06-10T13:39:05;39.20;48.70
78904;DHT22;68291;49.602;8.722;2023-06-10T13:42:01;39.30;47.80
78904;DHT22;68291;49.602;8.722;2023-06-10T13:45:00;39.20;47.00
78904;DHT22;68291;49.602;8.722;2023-06-10T13:47:58;39.10;46.30
78904;DHT22;68291;49.602;8.722;2023-06-10T13:51:07;39.00;47.60
78904;DHT22;68291;49.602;8.722;2023-06-10T13:54:03;39.20;47.30
78904;DHT22;68291;49.602;8.722;2023-06-10T13:57:04;39.50;47.20
78904;DHT22;68291;49.602;8.722;2023-06-10T14:00:00;39.80;45.50
78904;DHT22;68291;49.602;8.722;2023-06-10T14:02:50;40.10;45.00
78904;DHT22;68291;49.602;8.722;2023-06-10T14:05:43;40.30;45.60
78904;DHT22;68291;49.602;8.722;2023-06-10T14:08:43;40.60;45.00
78904;DHT22;68291;49.602;8.722;2023-06-10T14:11:32;41.00;45.00
78904;DHT22;68291;49.602;8.722;2023-06-10T14:14:24;41.30;45.10
78904;DHT22;68291;49.602;8.722;2023-06-10T14:17:25;41.70;44.20
78904;DHT22;68291;49.602;8.722;2023-06-10T14:20:20;42.00;42.70
78904;DHT22;68291;49.602;8.722;2023-06-10T14:23:18;42.30;41.60
78904;DHT22;68291;49.602;8.722;2023-06-10T14:26:08;42.50;41.70
78904;DHT22;68291;49.602;8.722;2023-06-10T14:29:16;42.50;40.70
78904;DHT22;68291;49.602;8.722;2023-06-10T14:32:06;42.50;41.30
78904;DHT22;68291;49.602;8.722;2023-06-10T14:35:16;42.70;41.50
78904;DHT22;68291;49.602;8.722;2023-06-10T14:38:07;42.80;40.70
78904;DHT22;68291;49.602;8.722;2023-06-10T14:41:09;42.80;40.80
78904;DHT22;68291;49.602;8.722;2023-06-10T14:44:07;43.00;40.20
78904;DHT22;68291;49.602;8.722;2023-06-10T14:47:16;43.20;40.20
78904;DHT22;68291;49.602;8.722;2023-06-10T14:50:14;43.40;39.50
78904;DHT22;68291;49.602;8.722;2023-06-10T14:53:14;43.50;39.20
78904;DHT22;68291;49.602;8.722;2023-06-10T14:56:12;43.50;39.20
78904;DHT22;68291;49.602;8.722;2023-06-10T14:59:10;43.20;38.90
78904;DHT22;68291;49.602;8.722;2023-06-10T15:02:04;42.90;38.60
78904;DHT22;68291;49.602;8.722;2023-06-10T15:04:54;42.70;38.70
78904;DHT22;68291;49.602;8.722;2023-06-10T15:07:57;42.50;38.70
78904;DHT22;68291;49.602;8.722;2023-06-10T15:10:50;42.60;38.60
78904;DHT22;68291;49.602;8.722;2023-06-10T15:13:53;42.80;38.90
78904;DHT22;68291;49.602;8.722;2023-06-10T15:16:52;43.10;38.90
78904;DHT22;68291;49.602;8.722;2023-06-10T15:20:00;43.30;38.70
78904;DHT22;68291;49.602;8.722;2023-06-10T15:22:49;43.60;37.70
78904;DHT22;68291;49.602;8.722;2023-06-10T15:25:42;43.80;37.30
78904;DHT22;68291;49.602;8.722;2023-06-10T15:28:41;44.00;36.40
78904;DHT22;68291;49.602;8.722;2023-06-10T15:31:37;44.20;36.40
78904;DHT22;68291;49.602;8.722;2023-06-10T15:34:30;44.40;36.20
78904;DHT22;68291;49.602;8.722;2023-06-10T15:37:21;44.60;36.00
78904;DHT22;68291;49.602;8.722;2023-06-10T15:40:11;44.80;35.50
78904;DHT22;68291;49.602;8.722;2023-06-10T15:43:06;45.00;36.10
78904;DHT22;68291;49.602;8.722;2023-06-10T15:45:55;45.10;34.40
78904;DHT22;68291;49.602;8.722;2023-06-10T15:48:47;45.20;34.20
78904;DHT22;68291;49.602;8.722;2023-06-10T15:51:45;45.20;34.50
78904;DHT22;68291;49.602;8.722;2023-06-10T15:54:38;45.30;34.30
78904;DHT22;68291;49.602;8.722;2023-06-10T15:57:40;45.20;34.00
78904;DHT22;68291;49.602;8.722;2023-06-10T16:00:36;45.20;33.80
78904;DHT22;68291;49.602;8.722;2023-06-10T16:03:28;45.20;33.20
78904;DHT22;68291;49.602;8.722;2023-06-10T16:06:28;45.20;34.10
78904;DHT22;68291;49.602;8.722;2023-06-10T16:09:37;45.30;34.10
78904;DHT22;68291;49.602;8.722;2023-06-10T16:12:35;45.40;34.10
78904;DHT22;68291;49.602;8.722;2023-06-10T16:15:41;45.60;33.90
78904;DHT22;68291;49.602;8.722;2023-06-10T16:18:31;45.70;32.40
78904;DHT22;68291;49.602;8.722;2023-06-10T16:21:27;45.80;33.20
78904;DHT22;68291;49.602;8.722;2023-06-10T16:24:28;45.80;32.80
78904;DHT22;68291;49.602;8.722;2023-06-10T16:27:17;45.80;33.40
78904;DHT22;68291;49.602;8.722;2023-06-10T16:30:16;45.80;32.90
78904;DHT22;68291;49.602;8.722;2023-06-10T16:33:22;45.80;32.60
78904;DHT22;68291;49.602;8.722;2023-06-10T16:36:16;45.60;32.50
78904;DHT22;68291;49.602;8.722;2023-06-10T16:39:12;45.40;32.80
78904;DHT22;68291;49.602;8.722;2023-06-10T16:42:06;45.40;32.70
78904;DHT22;68291;49.602;8.722;2023-06-10T16:45:15;45.40;32.80
78904;DHT22;68291;49.602;8.722;2023-06-10T16:48:06;45.40;32.40
78904;DHT22;68291;49.602;8.722;2023-06-10T16:51:20;45.50;32.50
78904;DHT22;68291;49.602;8.722;2023-06-10T16:54:10;45.50;32.50
78904;DHT22;68291;49.602;8.722;2023-06-10T16:56:59;45.50;32.70
78904;DHT22;68291;49.602;8.722;2023-06-10T16:59:55;45.50;32.30
78904;DHT22;68291;49.602;8.722;2023-06-10T17:02:56;45.50;32.20
78904;DHT22;68291;49.602;8.722;2023-06-10T17:06:04;45.40;32.10
78904;DHT22;68291;49.602;8.722;2023-06-10T17:09:12;45.30;31.90
78904;DHT22;68291;49.602;8.722;2023-06-10T17:12:10;45.10;32.20
78904;DHT22;68291;49.602;8.722;2023-06-10T17:15:09;45.00;32.40
78904;DHT22;68291;49.602;8.722;2023-06-10T17:18:07;44.80;32.40
78904;DHT22;68291;49.602;8.722;2023-06-10T17:21:20;44.70;32.50
78904;DHT22;68291;49.602;8.722;2023-06-10T17:24:19;44.60;32.60
78904;DHT22;68291;49.602;8.722;2023-06-10T17:27:37;44.60;32.50
78904;DHT22;68291;49.602;8.722;2023-06-10T17:30:42;44.20;32.70
78904;DHT22;68291;49.602;8.722;2023-06-10T17:33:40;43.70;32.70
78904;DHT22;68291;49.602;8.722;2023-06-10T17:36:42;42.90;32.70
78904;DHT22;68291;49.602;8.722;2023-06-10T17:39:52;41.90;33.50
78904;DHT22;68291;49.602;8.722;2023-06-10T17:42:51;40.90;33.70
78904;DHT22;68291;49.602;8.722;2023-06-10T17:45:48;39.90;34.80
78904;DHT22;68291;49.602;8.722;2023-06-10T17:48:41;39.00;35.30
78904;DHT22;68291;49.602;8.722;2023-06-10T17:51:42;38.20;36.20
78904;DHT22;68291;49.602;8.722;2023-06-10T17:54:47;37.50;37.10
78904;DHT22;68291;49.602;8.722;2023-06-10T17:57:56;36.70;37.60
78904;DHT22;68291;49.602;8.722;2023-06-10T18:00:54;36.10;38.30
78904;DHT22;68291;49.602;8.722;2023-06-10T18:04:04;35.50;39.10
78904;DHT22;68291;49.602;8.722;2023-06-10T18:07:05;34.90;39.50
78904;DHT22;68291;49.602;8.722;2023-06-10T18:10:00;34.40;40.80
78904;DHT22;68291;49.602;8.722;2023-06-10T18:12:56;33.90;40.30
78904;DHT22;68291;49.602;8.722;2023-06-10T18:15:46;33.50;41.10
78904;DHT22;68291;49.602;8.722;2023-06-10T18:18:38;33.10;41.70
78904;DHT22;68291;49.602;8.722;2023-06-10T18:21:35;32.80;42.20
78904;DHT22;68291;49.602;8.722;2023-06-10T18:24:35;32.50;42.60
78904;DHT22;68291;49.602;8.722;2023-06-10T18:27:28;32.30;43.70
78904;DHT22;68291;49.602;8.722;2023-06-10T18:30:23;32.00;43.80
78904;DHT22;68291;49.602;8.722;2023-06-10T18:33:15;31.80;44.30
78904;DHT22;68291;49.602;8.722;2023-06-10T18:36:13;31.60;44.70
78904;DHT22;68291;49.602;8.722;2023-06-10T18:39:06;31.40;45.00
78904;DHT22;68291;49.602;8.722;2023-06-10T18:42:13;31.20;45.50
78904;DHT22;68291;49.602;8.722;2023-06-10T18:45:08;31.00;46.20